sensor_id;sensor_type;location;lat;lon;timestamp;temperature;humidity
19908;DHT22;10116;53.112;7.356;2023-05-23T00:02:21;26.00;99.90
19908;DHT22;10116;53.112;7.356;2023-05-23T00:04:47;26.00;99.90
19908;DHT22;10116;53.112;7.356;2023-05-23T00:07:13;26.00;99.90
19908;DHT22;10116;53.112;7.356;2023-05-23T00:09:39;26.00;99.90
19908;DHT22;10116;53.112;7.356;2023-05-23T00:12:04;26.00;99.90
19908;DHT22;10116;53.112;7.356;2023-05-23T00:14:31;26.00;99.90
19908;DHT22;10116;53.112;7.356;2023-05-23T00:16:58;26.00;99.90
19908;DHT22;10116;53.112;7.356;2023-05-23T00:19:25;26.00;99.90
19908;DHT22;10116;53.112;7.356;2023-05-23T00:21:51;26.00;99.90
19908;DHT22;10116;53.112;7.356;2023-05-23T00:24:18;26.10;99.90
19908;DHT22;10116;53.112;7.356;2023-05-23T00:26:45;26.10;99.90
19908;DHT22;10116;53.112;7.356;2023-05-23T00:29:10;26.20;99.90
19908;DHT22;10116;53.112;7.356;2023-05-23T00:31:44;26.20;99.90
19908;DHT22;10116;53.112;7.356;2023-05-23T00:34:14;26.20;99.90
19908;DHT22;10116;53.112;7.356;2023-05-23T00:36:42;26.20;99.90
19908;DHT22;10116;53.112;7.356;2023-05-23T00:39:08;26.20;99.90
19908;DHT22;10116;53.112;7.356;2023-05-23T00:41:41;26.20;99.90
19908;DHT22;10116;53.112;7.356;2023-05-23T00:44:07;26.20;99.90
19908;DHT22;10116;53.112;7.356;2023-05-23T00:46:34;26.20;99.90
19908;DHT22;10116;53.112;7.356;2023-05-23T00:49:00;26.20;99.90
19908;DHT22;10116;53.112;7.356;2023-05-23T00:51:26;26.20;99.90
19908;DHT22;10116;53.112;7.356;2023-05-23T00:53:52;26.20;99.90
19908;DHT22;10116;53.112;7.356;2023-05-23T00:56:18;26.20;99.90
19908;DHT22;10116;53.112;7.356;2023-05-23T00:58:45;26.20;99.90
19908;DHT22;10116;53.112;7.356;2023-05-23T01:01:12;26.20;99.90
19908;DHT22;10116;53.112;7.356;2023-05-23T01:03:38;26.20;99.90
19908;DHT22;10116;53.112;7.356;2023-05-23T01:06:03;26.20;99.90
19908;DHT22;10116;53.112;7.356;2023-05-23T01:08:29;26.20;99.90
19908;DHT22;10116;53.112;7.356;2023-05-23T01:10:57;26.20;99.90
19908;DHT22;10116;53.112;7.356;2023-05-23T01:16:05;26.20;99.90
19908;DHT22;10116;53.112;7.356;2023-05-23T01:18:52;26.20;99.90
19908;DHT22;10116;53.112;7.356;2023-05-23T01:21:23;26.20;99.90
19908;DHT22;10116;53.112;7.356;2023-05-23T01:29:11;26.20;99.90
19908;DHT22;10116;53.112;7.356;2023-05-23T01:31:42;26.20;99.90
19908;DHT22;10116;53.112;7.356;2023-05-23T01:34:09;26.20;99.90
19908;DHT22;10116;53.112;7.356;2023-05-23T01:36:42;26.20;99.90
19908;DHT22;10116;53.112;7.356;2023-05-23T01:39:08;26.20;99.90
19908;DHT22;10116;53.112;7.356;2023-05-23T01:41:35;26.10;99.90
19908;DHT22;10116;53.112;7.356;2023-05-23T01:44:01;26.20;99.90
19908;DHT22;10116;53.112;7.356;2023-05-23T01:46:28;26.20;99.90
19908;DHT22;10116;53.112;7.356;2023-05-23T01:48:56;26.20;99.90
19908;DHT22;10116;53.112;7.356;2023-05-23T01:51:23;26.20;99.90
19908;DHT22;10116;53.112;7.356;2023-05-23T01:53:50;26.20;99.90
19908;DHT22;10116;53.112;7.356;2023-05-23T01:56:15;26.10;99.90
19908;DHT22;10116;53.112;7.356;2023-05-23T01:58:41;26.10;99.90
19908;DHT22;10116;53.112;7.356;2023-05-23T02:01:08;26.10;99.90
19908;DHT22;10116;53.112;7.356;2023-05-23T02:03:34;26.10;99.90
19908;DHT22;10116;53.112;7.356;2023-05-23T02:06:00;26.10;99.90
19908;DHT22;10116;53.112;7.356;2023-05-23T02:08:26;26.10;99.90
19908;DHT22;10116;53.112;7.356;2023-05-23T02:10:51;26.10;99.90
19908;DHT22;10116;53.112;7.356;2023-05-23T02:13:17;26.10;99.90
19908;DHT22;10116;53.112;7.356;2023-05-23T02:15:43;26.10;99.90
19908;DHT22;10116;53.112;7.356;2023-05-23T02:18:08;26.10;99.90
19908;DHT22;10116;53.112;7.356;2023-05-23T02:20:34;26.10;99.90
19908;DHT22;10116;53.112;7.356;2023-05-23T02:23:00;26.10;99.90
19908;DHT22;10116;53.112;7.356;2023-05-23T02:25:25;26.10;99.90
19908;DHT22;10116;53.112;7.356;2023-05-23T02:27:51;26.10;99.90
19908;DHT22;10116;53.112;7.356;2023-05-23T02:30:16;26.10;99.90
19908;DHT22;10116;53.112;7.356;2023-05-23T02:32:42;26.10;99.90
19908;DHT22;10116;53.112;7.356;2023-05-23T02:35:08;26.10;99.90
19908;DHT22;10116;53.112;7.356;2023-05-23T02:37:34;26.10;99.90
19908;DHT22;10116;53.112;7.356;2023-05-23T02:40:00;26.10;99.90
19908;DHT22;10116;53.112;7.356;2023-05-23T02:42:26;26.10;99.90
19908;DHT22;10116;53.112;7.356;2023-05-23T02:44:52;26.10;99.90
19908;DHT22;10116;53.112;7.356;2023-05-23T02:47:17;26.10;99.90
19908;DHT22;10116;53.112;7.356;2023-05-23T02:49:43;26.10;99.90
19908;DHT22;10116;53.112;7.356;2023-05-23T02:52:08;26.10;99.90
19908;DHT22;10116;53.112;7.356;2023-05-23T02:54:34;26.10;99.90
19908;DHT22;10116;53.112;7.356;2023-05-23T02:56:59;26.10;99.90
19908;DHT22;10116;53.112;7.356;2023-05-23T02:59:25;26.10;99.90
19908;DHT22;10116;53.112;7.356;2023-05-23T03:01:51;26.10;99.90
19908;DHT22;10116;53.112;7.356;2023-05-23T03:04:17;26.10;99.90
19908;DHT22;10116;53.112;7.356;2023-05-23T03:06:42;26.10;99.90
19908;DHT22;10116;53.112;7.356;2023-05-23T03:09:09;26.10;99.90
19908;DHT22;10116;53.112;7.356;2023-05-23T03:11:35;26.10;99.90
19908;DHT22;10116;53.112;7.356;2023-05-23T03:14:01;26.10;99.90
19908;DHT22;10116;53.112;7.356;2023-05-23T03:16:27;26.10;99.90
19908;DHT22;10116;53.112;7.356;2023-05-23T03:18:52;26.10;99.90
19908;DHT22;10116;53.112;7.356;2023-05-23T03:21:18;26.00;99.90
19908;DHT22;10116;53.112;7.356;2023-05-23T03:23:43;26.00;99.90
19908;DHT22;10116;53.112;7.356;2023-05-23T03:26:09;26.00;99.90
19908;DHT22;10116;53.112;7.356;2023-05-23T03:28:35;26.00;99.90
19908;DHT22;10116;53.112;7.356;2023-05-23T03:31:00;26.00;99.90
19908;DHT22;10116;53.112;7.356;2023-05-23T03:33:26;26.10;99.90
19908;DHT22;10116;53.112;7.356;2023-05-23T03:35:52;26.10;99.90
19908;DHT22;10116;53.112;7.356;2023-05-23T03:38:17;26.20;99.90
19908;DHT22;10116;53.112;7.356;2023-05-23T03:40:43;26.20;99.90
19908;DHT22;10116;53.112;7.356;2023-05-23T03:43:08;26.20;99.90
19908;DHT22;10116;53.112;7.356;2023-05-23T03:45:34;26.30;99.90
19908;DHT22;10116;53.112;7.356;2023-05-23T03:48:00;26.30;99.90
19908;DHT22;10116;53.112;7.356;2023-05-23T03:50:26;26.40;99.90
19908;DHT22;10116;53.112;7.356;2023-05-23T03:52:52;26.40;99.90
19908;DHT22;10116;53.112;7.356;2023-05-23T03:55:23;26.40;99.90
19908;DHT22;10116;53.112;7.356;2023-05-23T03:57:50;26.40;99.90
19908;DHT22;10116;53.112;7.356;2023-05-23T04:00:16;26.40;99.90
19908;DHT22;10116;53.112;7.356;2023-05-23T04:02:43;26.40;99.90
19908;DHT22;10116;53.112;7.356;2023-05-23T04:05:11;26.40;99.90
19908;DHT22;10116;53.112;7.356;2023-05-23T04:07:37;26.40;99.90
19908;DHT22;10116;53.112;7.356;2023-05-23T04:10:03;26.40;99.90
19908;DHT22;10116;53.112;7.356;2023-05-23T04:12:29;26.40;99.90
19908;DHT22;10116;53.112;7.356;2023-05-23T04:14:55;26.40;99.90
19908;DHT22;10116;53.112;7.356;2023-05-23T04:17:20;26.30;99.90
19908;DHT22;10116;53.112;7.356;2023-05-23T04:19:47;26.30;99.90
19908;DHT22;10116;53.112;7.356;2023-05-23T04:22:12;26.30;99.90
19908;DHT22;10116;53.112;7.356;2023-05-23T04:24:38;26.30;99.90
19908;DHT22;10116;53.112;7.356;2023-05-23T04:27:04;26.30;99.90
19908;DHT22;10116;53.112;7.356;2023-05-23T04:29:30;26.30;99.90
19908;DHT22;10116;53.112;7.356;2023-05-23T04:31:58;26.30;99.90
19908;DHT22;10116;53.112;7.356;2023-05-23T04:34:25;26.30;99.90
19908;DHT22;10116;53.112;7.356;2023-05-23T04:36:51;26.30;99.90
19908;DHT22;10116;53.112;7.356;2023-05-23T04:39:18;26.30;99.90
19908;DHT22;10116;53.112;7.356;2023-05-23T04:41:44;26.30;99.90
19908;DHT22;10116;53.112;7.356;2023-05-23T04:44:11;26.30;99.90
19908;DHT22;10116;53.112;7.356;2023-05-23T04:46:37;26.30;99.90
19908;DHT22;10116;53.112;7.356;2023-05-23T04:49:09;26.30;99.90
19908;DHT22;10116;53.112;7.356;2023-05-23T04:51:35;26.30;99.90
19908;DHT22;10116;53.112;7.356;2023-05-23T04:54:01;26.30;99.90
19908;DHT22;10116;53.112;7.356;2023-05-23T04:56:27;26.30;99.90
19908;DHT22;10116;53.112;7.356;2023-05-23T04:58:53;26.30;99.90
19908;DHT22;10116;53.112;7.356;2023-05-23T05:01:19;26.30;99.90
19908;DHT22;10116;53.112;7.356;2023-05-23T05:03:45;26.30;99.90
19908;DHT22;10116;53.112;7.356;2023-05-23T05:06:12;26.30;99.90
19908;DHT22;10116;53.112;7.356;2023-05-23T05:08:38;26.30;99.90
19908;DHT22;10116;53.112;7.356;2023-05-23T05:11:05;26.30;99.90
19908;DHT22;10116;53.112;7.356;2023-05-23T05:13:30;26.30;99.90
19908;DHT22;10116;53.112;7.356;2023-05-23T05:15:56;26.30;99.90
19908;DHT22;10116;53.112;7.356;2023-05-23T05:18:24;26.40;99.90
19908;DHT22;10116;53.112;7.356;2023-05-23T05:20:50;26.40;99.90
19908;DHT22;10116;53.112;7.356;2023-05-23T05:23:15;26.40;99.90
19908;DHT22;10116;53.112;7.356;2023-05-23T05:25:41;26.40;99.90
19908;DHT22;10116;53.112;7.356;2023-05-23T05:28:06;26.40;99.90
19908;DHT22;10116;53.112;7.356;2023-05-23T05:30:32;26.40;99.90
19908;DHT22;10116;53.112;7.356;2023-05-23T05:33:00;26.40;99.90
19908;DHT22;10116;53.112;7.356;2023-05-23T05:35:31;26.40;99.90
19908;DHT22;10116;53.112;7.356;2023-05-23T05:37:57;26.40;99.90
19908;DHT22;10116;53.112;7.356;2023-05-23T05:40:23;26.40;99.90
19908;DHT22;10116;53.112;7.356;2023-05-23T05:42:48;26.40;99.90
19908;DHT22;10116;53.112;7.356;2023-05-23T05:45:14;26.40;99.90
19908;DHT22;10116;53.112;7.356;2023-05-23T05:47:40;26.40;99.90
19908;DHT22;10116;53.112;7.356;2023-05-23T05:50:06;26.40;99.90
19908;DHT22;10116;53.112;7.356;2023-05-23T05:52:33;26.40;99.90
19908;DHT22;10116;53.112;7.356;2023-05-23T05:55:04;26.40;99.90
19908;DHT22;10116;53.112;7.356;2023-05-23T05:57:31;26.40;99.90
19908;DHT22;10116;53.112;7.356;2023-05-23T05:59:57;26.40;99.90
19908;DHT22;10116;53.112;7.356;2023-05-23T06:02:22;26.40;99.90
19908;DHT22;10116;53.112;7.356;2023-05-23T06:04:48;26.40;99.90
19908;DHT22;10116;53.112;7.356;2023-05-23T06:07:14;26.40;99.90
19908;DHT22;10116;53.112;7.356;2023-05-23T06:09:39;26.40;99.90
19908;DHT22;10116;53.112;7.356;2023-05-23T06:12:05;26.40;99.90
19908;DHT22;10116;53.112;7.356;2023-05-23T06:14:31;26.40;99.90
19908;DHT22;10116;53.112;7.356;2023-05-23T06:16:56;26.40;99.90
19908;DHT22;10116;53.112;7.356;2023-05-23T06:19:22;26.40;99.90
19908;DHT22;10116;53.112;7.356;2023-05-23T06:21:47;26.50;99.90
19908;DHT22;10116;53.112;7.356;2023-05-23T06:24:13;26.50;99.90
19908;DHT22;10116;53.112;7.356;2023-05-23T06:26:39;26.50;99.90
19908;DHT22;10116;53.112;7.356;2023-05-23T06:29:04;26.60;99.90
19908;DHT22;10116;53.112;7.356;2023-05-23T06:31:30;26.60;99.90
19908;DHT22;10116;53.112;7.356;2023-05-23T06:33:55;26.60;99.90
19908;DHT22;10116;53.112;7.356;2023-05-23T06:36:21;26.60;99.90
19908;DHT22;10116;53.112;7.356;2023-05-23T06:38:47;26.60;99.90
19908;DHT22;10116;53.112;7.356;2023-05-23T06:41:12;26.60;99.90
19908;DHT22;10116;53.112;7.356;2023-05-23T06:43:38;26.60;99.90
19908;DHT22;10116;53.112;7.356;2023-05-23T06:46:04;26.60;99.90
19908;DHT22;10116;53.112;7.356;2023-05-23T06:48:29;26.60;99.90
19908;DHT22;10116;53.112;7.356;2023-05-23T06:50:55;26.60;99.90
19908;DHT22;10116;53.112;7.356;2023-05-23T06:53:20;26.60;99.90
19908;DHT22;10116;53.112;7.356;2023-05-23T06:55:46;26.60;99.90
19908;DHT22;10116;53.112;7.356;2023-05-23T06:58:12;26.60;99.90
19908;DHT22;10116;53.112;7.356;2023-05-23T07:00:37;26.60;99.90
19908;DHT22;10116;53.112;7.356;2023-05-23T07:03:03;26.60;99.90
19908;DHT22;10116;53.112;7.356;2023-05-23T07:05:29;26.60;99.90
19908;DHT22;10116;53.112;7.356;2023-05-23T07:07:55;26.60;99.90
19908;DHT22;10116;53.112;7.356;2023-05-23T07:10:21;26.60;99.90
19908;DHT22;10116;53.112;7.356;2023-05-23T07:12:46;26.60;99.90
19908;DHT22;10116;53.112;7.356;2023-05-23T07:15:12;26.60;99.90
19908;DHT22;10116;53.112;7.356;2023-05-23T07:17:39;26.50;99.90
19908;DHT22;10116;53.112;7.356;2023-05-23T07:20:05;26.50;99.90
19908;DHT22;10116;53.112;7.356;2023-05-23T07:22:31;26.50;99.90
19908;DHT22;10116;53.112;7.356;2023-05-23T07:24:57;26.50;99.90
19908;DHT22;10116;53.112;7.356;2023-05-23T07:27:22;26.50;99.90
19908;DHT22;10116;53.112;7.356;2023-05-23T07:29:48;26.50;99.90
19908;DHT22;10116;53.112;7.356;2023-05-23T07:32:14;26.50;99.90
19908;DHT22;10116;53.112;7.356;2023-05-23T07:34:39;26.50;99.90
19908;DHT22;10116;53.112;7.356;2023-05-23T07:37:05;26.50;99.90
19908;DHT22;10116;53.112;7.356;2023-05-23T07:39:31;26.50;99.90
19908;DHT22;10116;53.112;7.356;2023-05-23T07:41:56;26.50;99.90
19908;DHT22;10116;53.112;7.356;2023-05-23T07:44:22;26.50;99.90
19908;DHT22;10116;53.112;7.356;2023-05-23T07:46:47;26.60;99.90
19908;DHT22;10116;53.112;7.356;2023-05-23T07:49:13;26.60;99.90
19908;DHT22;10116;53.112;7.356;2023-05-23T07:51:39;26.60;99.90
19908;DHT22;10116;53.112;7.356;2023-05-23T07:54:06;26.60;99.90
19908;DHT22;10116;53.112;7.356;2023-05-23T07:56:31;26.60;99.90
19908;DHT22;10116;53.112;7.356;2023-05-23T07:58:57;26.60;99.90
19908;DHT22;10116;53.112;7.356;2023-05-23T08:01:23;26.60;99.90
19908;DHT22;10116;53.112;7.356;2023-05-23T08:03:49;26.60;99.90
19908;DHT22;10116;53.112;7.356;2023-05-23T08:06:15;26.60;99.90
19908;DHT22;10116;53.112;7.356;2023-05-23T08:08:41;26.60;99.90
19908;DHT22;10116;53.112;7.356;2023-05-23T08:11:08;26.60;99.90
19908;DHT22;10116;53.112;7.356;2023-05-23T08:13:33;26.60;99.90
19908;DHT22;10116;53.112;7.356;2023-05-23T08:15:59;26.60;99.90
19908;DHT22;10116;53.112;7.356;2023-05-23T08:18:25;26.60;99.90
19908;DHT22;10116;53.112;7.356;2023-05-23T08:20:51;26.60;99.90
19908;DHT22;10116;53.112;7.356;2023-05-23T08:23:16;26.50;99.90
19908;DHT22;10116;53.112;7.356;2023-05-23T08:25:42;26.60;99.90
19908;DHT22;10116;53.112;7.356;2023-05-23T08:28:09;26.50;99.90
19908;DHT22;10116;53.112;7.356;2023-05-23T08:30:35;26.50;99.90
19908;DHT22;10116;53.112;7.356;2023-05-23T08:33:01;26.50;99.90
19908;DHT22;10116;53.112;7.356;2023-05-23T08:35:29;26.50;99.90
19908;DHT22;10116;53.112;7.356;2023-05-23T08:38:00;26.50;99.90
19908;DHT22;10116;53.112;7.356;2023-05-23T08:40:26;26.50;99.90
19908;DHT22;10116;53.112;7.356;2023-05-23T08:42:53;26.50;99.90
19908;DHT22;10116;53.112;7.356;2023-05-23T08:45:19;26.50;99.90
19908;DHT22;10116;53.112;7.356;2023-05-23T08:47:46;26.50;99.90
19908;DHT22;10116;53.112;7.356;2023-05-23T08:50:16;26.50;99.90
19908;DHT22;10116;53.112;7.356;2023-05-23T08:52:58;26.50;99.90
19908;DHT22;10116;53.112;7.356;2023-05-23T08:55:26;26.50;99.90
19908;DHT22;10116;53.112;7.356;2023-05-23T08:57:52;26.50;99.90
19908;DHT22;10116;53.112;7.356;2023-05-23T09:00:19;26.50;99.90
19908;DHT22;10116;53.112;7.356;2023-05-23T09:02:45;26.50;99.90
19908;DHT22;10116;53.112;7.356;2023-05-23T09:05:11;26.50;99.90
19908;DHT22;10116;53.112;7.356;2023-05-23T09:07:38;26.50;99.90
19908;DHT22;10116;53.112;7.356;2023-05-23T09:10:08;26.50;99.90
19908;DHT22;10116;53.112;7.356;2023-05-23T09:12:34;26.50;99.90
19908;DHT22;10116;53.112;7.356;2023-05-23T09:15:05;26.50;99.90
19908;DHT22;10116;53.112;7.356;2023-05-23T09:17:31;26.50;99.90
19908;DHT22;10116;53.112;7.356;2023-05-23T09:20:01;26.50;99.90
19908;DHT22;10116;53.112;7.356;2023-05-23T09:22:27;26.50;99.90
19908;DHT22;10116;53.112;7.356;2023-05-23T09:24:54;26.50;99.90
19908;DHT22;10116;53.112;7.356;2023-05-23T09:27:20;26.50;99.90
19908;DHT22;10116;53.112;7.356;2023-05-23T09:29:46;26.50;99.90
19908;DHT22;10116;53.112;7.356;2023-05-23T09:32:19;26.50;99.90
19908;DHT22;10116;53.112;7.356;2023-05-23T09:34:59;26.50;99.90
19908;DHT22;10116;53.112;7.356;2023-05-23T09:40:00;26.50;99.90
19908;DHT22;10116;53.112;7.356;2023-05-23T09:42:45;26.50;99.90
19908;DHT22;10116;53.112;7.356;2023-05-23T09:45:11;26.50;99.90
19908;DHT22;10116;53.112;7.356;2023-05-23T09:47:37;26.50;99.90
19908;DHT22;10116;53.112;7.356;2023-05-23T09:50:03;26.50;99.90
19908;DHT22;10116;53.112;7.356;2023-05-23T09:52:36;26.50;99.90
19908;DHT22;10116;53.112;7.356;2023-05-23T09:55:05;26.50;99.90
19908;DHT22;10116;53.112;7.356;2023-05-23T09:57:34;26.50;99.90
19908;DHT22;10116;53.112;7.356;2023-05-23T10:00:02;26.50;99.90
19908;DHT22;10116;53.112;7.356;2023-05-23T10:02:57;26.50;99.90
19908;DHT22;10116;53.112;7.356;2023-05-23T10:08:15;26.50;99.90
19908;DHT22;10116;53.112;7.356;2023-05-23T10:13:41;26.60;99.90
19908;DHT22;10116;53.112;7.356;2023-05-23T10:16:08;26.60;99.90
19908;DHT22;10116;53.112;7.356;2023-05-23T10:18:43;26.70;99.90
19908;DHT22;10116;53.112;7.356;2023-05-23T10:21:20;26.70;99.90
19908;DHT22;10116;53.112;7.356;2023-05-23T10:23:49;26.80;99.90
19908;DHT22;10116;53.112;7.356;2023-05-23T10:26:16;26.80;99.90
19908;DHT22;10116;53.112;7.356;2023-05-23T10:28:43;26.80;99.90
19908;DHT22;10116;53.112;7.356;2023-05-23T10:31:10;26.80;99.90
19908;DHT22;10116;53.112;7.356;2023-05-23T10:33:41;26.80;99.90
19908;DHT22;10116;53.112;7.356;2023-05-23T10:36:23;26.80;99.90
19908;DHT22;10116;53.112;7.356;2023-05-23T10:41:30;26.80;99.90
19908;DHT22;10116;53.112;7.356;2023-05-23T10:44:22;26.90;99.90
19908;DHT22;10116;53.112;7.356;2023-05-23T10:46:53;26.90;99.90
19908;DHT22;10116;53.112;7.356;2023-05-23T10:49:20;26.90;99.90
19908;DHT22;10116;53.112;7.356;2023-05-23T10:51:50;26.90;99.30
19908;DHT22;10116;53.112;7.356;2023-05-23T10:54:19;26.80;98.70
19908;DHT22;10116;53.112;7.356;2023-05-23T10:56:45;26.80;99.00
19908;DHT22;10116;53.112;7.356;2023-05-23T10:59:19;26.80;98.30
19908;DHT22;10116;53.112;7.356;2023-05-23T11:01:50;26.80;97.90
19908;DHT22;10116;53.112;7.356;2023-05-23T11:04:27;26.80;98.10
19908;DHT22;10116;53.112;7.356;2023-05-23T11:06:54;26.70;97.90
19908;DHT22;10116;53.112;7.356;2023-05-23T11:09:21;26.70;97.40
19908;DHT22;10116;53.112;7.356;2023-05-23T11:14:59;26.70;97.30
19908;DHT22;10116;53.112;7.356;2023-05-23T11:17:32;26.70;97.20
19908;DHT22;10116;53.112;7.356;2023-05-23T11:20:05;26.70;99.90
19908;DHT22;10116;53.112;7.356;2023-05-23T11:22:32;26.70;97.10
19908;DHT22;10116;53.112;7.356;2023-05-23T11:25:00;26.70;96.50
19908;DHT22;10116;53.112;7.356;2023-05-23T11:27:37;26.70;96.60
19908;DHT22;10116;53.112;7.356;2023-05-23T11:30:06;26.70;96.60
19908;DHT22;10116;53.112;7.356;2023-05-23T11:32:33;26.70;96.50
19908;DHT22;10116;53.112;7.356;2023-05-23T11:35:01;26.70;96.30
19908;DHT22;10116;53.112;7.356;2023-05-23T11:37:27;26.70;96.20
19908;DHT22;10116;53.112;7.356;2023-05-23T11:39:53;26.80;96.50
19908;DHT22;10116;53.112;7.356;2023-05-23T11:42:19;26.80;97.20
19908;DHT22;10116;53.112;7.356;2023-05-23T11:44:48;26.90;96.80
19908;DHT22;10116;53.112;7.356;2023-05-23T11:47:14;26.90;97.30
19908;DHT22;10116;53.112;7.356;2023-05-23T11:49:41;26.90;97.60
19908;DHT22;10116;53.112;7.356;2023-05-23T11:52:08;26.90;97.20
19908;DHT22;10116;53.112;7.356;2023-05-23T11:54:34;26.90;97.40
19908;DHT22;10116;53.112;7.356;2023-05-23T11:57:01;27.00;97.20
19908;DHT22;10116;53.112;7.356;2023-05-23T11:59:28;27.00;97.60
19908;DHT22;10116;53.112;7.356;2023-05-23T12:01:54;27.00;96.80
19908;DHT22;10116;53.112;7.356;2023-05-23T12:04:20;27.00;96.90
19908;DHT22;10116;53.112;7.356;2023-05-23T12:06:47;27.00;96.80
19908;DHT22;10116;53.112;7.356;2023-05-23T12:09:14;27.00;96.50
19908;DHT22;10116;53.112;7.356;2023-05-23T12:11:41;27.00;96.60
19908;DHT22;10116;53.112;7.356;2023-05-23T12:14:08;27.00;96.30
19908;DHT22;10116;53.112;7.356;2023-05-23T12:16:34;27.00;95.90
19908;DHT22;10116;53.112;7.356;2023-05-23T12:19:02;27.00;96.00
19908;DHT22;10116;53.112;7.356;2023-05-23T12:21:44;27.00;95.90
19908;DHT22;10116;53.112;7.356;2023-05-23T12:24:14;27.00;95.70
19908;DHT22;10116;53.112;7.356;2023-05-23T12:27:00;27.00;95.40
19908;DHT22;10116;53.112;7.356;2023-05-23T12:29:30;27.00;95.80
19908;DHT22;10116;53.112;7.356;2023-05-23T12:32:02;26.90;95.10
19908;DHT22;10116;53.112;7.356;2023-05-23T12:34:28;26.90;95.10
19908;DHT22;10116;53.112;7.356;2023-05-23T12:36:56;26.90;94.40
19908;DHT22;10116;53.112;7.356;2023-05-23T12:39:27;26.90;94.40
19908;DHT22;10116;53.112;7.356;2023-05-23T12:41:54;26.90;94.20
19908;DHT22;10116;53.112;7.356;2023-05-23T12:44:28;26.90;94.00
19908;DHT22;10116;53.112;7.356;2023-05-23T12:46:54;26.90;93.80
19908;DHT22;10116;53.112;7.356;2023-05-23T12:49:20;26.90;93.50
19908;DHT22;10116;53.112;7.356;2023-05-23T12:51:46;26.90;93.30
19908;DHT22;10116;53.112;7.356;2023-05-23T12:54:11;26.90;93.40
19908;DHT22;10116;53.112;7.356;2023-05-23T12:56:37;26.90;93.40
19908;DHT22;10116;53.112;7.356;2023-05-23T12:59:02;26.90;93.30
19908;DHT22;10116;53.112;7.356;2023-05-23T13:01:29;26.90;93.20
19908;DHT22;10116;53.112;7.356;2023-05-23T13:03:54;26.90;92.80
19908;DHT22;10116;53.112;7.356;2023-05-23T13:06:20;26.90;92.70
19908;DHT22;10116;53.112;7.356;2023-05-23T13:08:46;26.90;92.70
19908;DHT22;10116;53.112;7.356;2023-05-23T13:11:13;26.90;92.60
19908;DHT22;10116;53.112;7.356;2023-05-23T13:13:38;26.90;92.50
19908;DHT22;10116;53.112;7.356;2023-05-23T13:16:04;26.90;92.10
19908;DHT22;10116;53.112;7.356;2023-05-23T13:18:30;26.90;92.30
19908;DHT22;10116;53.112;7.356;2023-05-23T13:20:55;26.90;92.60
19908;DHT22;10116;53.112;7.356;2023-05-23T13:23:21;26.90;92.30
19908;DHT22;10116;53.112;7.356;2023-05-23T13:25:47;27.00;92.80
19908;DHT22;10116;53.112;7.356;2023-05-23T13:28:15;27.00;92.70
19908;DHT22;10116;53.112;7.356;2023-05-23T13:30:40;27.00;92.50
19908;DHT22;10116;53.112;7.356;2023-05-23T13:33:06;27.00;92.10
19908;DHT22;10116;53.112;7.356;2023-05-23T13:35:31;27.10;92.80
19908;DHT22;10116;53.112;7.356;2023-05-23T13:37:57;27.10;92.50
19908;DHT22;10116;53.112;7.356;2023-05-23T13:40:23;27.10;92.40
19908;DHT22;10116;53.112;7.356;2023-05-23T13:42:50;27.10;92.30
19908;DHT22;10116;53.112;7.356;2023-05-23T13:45:15;27.10;92.20
19908;DHT22;10116;53.112;7.356;2023-05-23T13:47:42;27.10;92.00
19908;DHT22;10116;53.112;7.356;2023-05-23T13:50:08;27.10;92.10
19908;DHT22;10116;53.112;7.356;2023-05-23T13:52:34;27.10;91.60
19908;DHT22;10116;53.112;7.356;2023-05-23T13:55:00;27.10;92.00
19908;DHT22;10116;53.112;7.356;2023-05-23T13:57:26;27.10;91.50
19908;DHT22;10116;53.112;7.356;2023-05-23T13:59:52;27.10;91.30
19908;DHT22;10116;53.112;7.356;2023-05-23T14:02:18;27.10;91.10
19908;DHT22;10116;53.112;7.356;2023-05-23T14:04:44;27.10;91.00
19908;DHT22;10116;53.112;7.356;2023-05-23T14:07:09;27.10;90.70
19908;DHT22;10116;53.112;7.356;2023-05-23T14:09:35;27.10;90.50
19908;DHT22;10116;53.112;7.356;2023-05-23T14:12:01;27.10;90.30
19908;DHT22;10116;53.112;7.356;2023-05-23T14:14:26;27.10;90.60
19908;DHT22;10116;53.112;7.356;2023-05-23T14:16:52;27.10;90.20
19908;DHT22;10116;53.112;7.356;2023-05-23T14:19:18;27.10;91.30
19908;DHT22;10116;53.112;7.356;2023-05-23T14:21:44;27.10;90.00
19908;DHT22;10116;53.112;7.356;2023-05-23T14:24:10;27.10;89.00
19908;DHT22;10116;53.112;7.356;2023-05-23T14:26:36;27.10;88.70
19908;DHT22;10116;53.112;7.356;2023-05-23T14:29:01;27.00;88.60
19908;DHT22;10116;53.112;7.356;2023-05-23T14:31:28;27.10;88.60
19908;DHT22;10116;53.112;7.356;2023-05-23T14:33:53;27.10;88.90
19908;DHT22;10116;53.112;7.356;2023-05-23T14:36:19;27.10;89.00
19908;DHT22;10116;53.112;7.356;2023-05-23T14:38:45;27.00;88.00
19908;DHT22;10116;53.112;7.356;2023-05-23T14:41:12;27.10;87.90
19908;DHT22;10116;53.112;7.356;2023-05-23T14:43:38;27.00;88.40
19908;DHT22;10116;53.112;7.356;2023-05-23T14:46:04;27.00;88.90
19908;DHT22;10116;53.112;7.356;2023-05-23T14:48:30;27.00;87.20
19908;DHT22;10116;53.112;7.356;2023-05-23T14:50:56;27.10;87.00
19908;DHT22;10116;53.112;7.356;2023-05-23T14:53:26;27.00;85.70
19908;DHT22;10116;53.112;7.356;2023-05-23T14:55:52;27.00;85.80
19908;DHT22;10116;53.112;7.356;2023-05-23T14:58:20;27.00;84.50
19908;DHT22;10116;53.112;7.356;2023-05-23T15:00:46;27.00;85.00
19908;DHT22;10116;53.112;7.356;2023-05-23T15:03:13;27.00;84.10
19908;DHT22;10116;53.112;7.356;2023-05-23T15:05:38;27.00;84.60
19908;DHT22;10116;53.112;7.356;2023-05-23T15:08:04;27.00;83.80
19908;DHT22;10116;53.112;7.356;2023-05-23T15:10:30;27.00;83.70
19908;DHT22;10116;53.112;7.356;2023-05-23T15:12:55;27.00;82.90
19908;DHT22;10116;53.112;7.356;2023-05-23T15:15:21;27.00;82.20
19908;DHT22;10116;53.112;7.356;2023-05-23T15:17:49;27.00;81.70
19908;DHT22;10116;53.112;7.356;2023-05-23T15:20:15;27.00;82.10
19908;DHT22;10116;53.112;7.356;2023-05-23T15:22:41;27.00;81.10
19908;DHT22;10116;53.112;7.356;2023-05-23T15:25:08;27.00;80.50
19908;DHT22;10116;53.112;7.356;2023-05-23T15:27:33;27.00;80.00
19908;DHT22;10116;53.112;7.356;2023-05-23T15:29:59;26.90;79.90
19908;DHT22;10116;53.112;7.356;2023-05-23T15:32:25;26.90;78.80
19908;DHT22;10116;53.112;7.356;2023-05-23T15:34:51;26.90;79.40
19908;DHT22;10116;53.112;7.356;2023-05-23T15:37:16;26.90;78.60
19908;DHT22;10116;53.112;7.356;2023-05-23T15:39:42;26.90;78.20
19908;DHT22;10116;53.112;7.356;2023-05-23T15:42:08;26.90;78.00
19908;DHT22;10116;53.112;7.356;2023-05-23T15:44:33;26.90;78.30
19908;DHT22;10116;53.112;7.356;2023-05-23T15:46:59;26.90;77.10
19908;DHT22;10116;53.112;7.356;2023-05-23T15:49:25;26.90;77.40
19908;DHT22;10116;53.112;7.356;2023-05-23T15:51:51;26.90;77.40